Terminal Aerodrome Forecast
Issued by NWS

Home | Current Version | Previous Version | Text Only | Print | Product List | Glossary On
Versions: 1 2 3 4 5 6 7 8 9 10 11 12 13 14
000
FTUS46 KSTO 240524
TAFRDD
TAF
KRDD 240524Z 2406/2506 VRB04KT P6SM OVC035
     FM241600 18012KT 5SM -RA OVC025
     FM242100 18016G21KT 4SM -RA BR OVC015
     FM242200 17016KT P6SM -SHRA OVC015=

USA.gov is the U.S. government's official web portal to all federal, state and local government web resources and services.